Time;durP1;ratioP1;P1;durP2;ratioP2;P2;SDS_P1;SDS_P2;PMS_P1;PMS_P2;Temp;Humidity;BMP_temperature;BMP_pressure;BME280_temperature;BME280_humidity;BME280_pressure;Samples;Min_cycle;Max_cycle;Signal;HPM_P1;HPM_P2
2022/06/04 00:01:51;;;;;;;10.63;6.45;;;12.10;99.90;;;;;;4887591;29;20142;-57
2022/06/04 00:04:19;;;;;;;10.40;6.20;;;12.00;99.90;;;;;;4895066;29;20049;-57
2022/06/04 00:06:48;;;;;;;11.00;6.35;;;12.00;99.90;;;;;;4896444;29;20056;-55
2022/06/04 00:09:20;;;;;;;10.13;5.95;;;12.00;99.90;;;;;;4893992;29;20048;-57
2022/06/04 00:17:25;;;;;;;13.90;5.72;;;11.90;99.90;;;;;;4862878;29;20060;-58
2022/06/04 00:19:53;;;;;;;8.93;5.95;;;11.90;99.90;;;;;;4895204;29;20053;-57
2022/06/04 00:22:21;;;;;;;10.43;6.43;;;11.90;99.90;;;;;;4895083;29;20047;-57
2022/06/04 00:24:48;;;;;;;12.30;6.55;;;11.90;99.90;;;;;;4891537;29;20068;-56
2022/06/04 00:27:19;;;;;;;14.20;6.82;;;11.90;99.90;;;;;;4895947;29;20048;-56
2022/06/04 00:29:48;;;;;;;8.70;5.85;;;11.90;99.90;;;;;;4896023;29;20059;-55
2022/06/04 00:32:17;;;;;;;10.75;6.85;;;11.90;99.90;;;;;;4894007;29;20052;-56
2022/06/04 00:34:45;;;;;;;14.10;6.35;;;11.80;99.90;;;;;;4893017;29;20060;-55
2022/06/04 00:37:13;;;;;;;10.73;6.38;;;11.80;99.90;;;;;;4894526;29;20045;-55
2022/06/04 00:39:42;;;;;;;10.75;7.00;;;11.80;99.90;;;;;;4888333;29;20049;-56
2022/06/04 00:42:17;;;;;;;11.50;7.43;;;11.80;99.90;;;;;;4891166;29;20063;-55
2022/06/04 00:45:09;;;;;;;17.35;6.50;;;11.80;99.90;;;;;;4894530;29;20405;-56
2022/06/04 00:47:38;;;;;;;9.32;6.70;;;11.80;99.90;;;;;;4894402;29;20393;-55
2022/06/04 00:50:08;;;;;;;9.75;6.68;;;11.80;99.90;;;;;;4895657;29;20044;-55
2022/06/04 00:52:36;;;;;;;8.73;5.95;;;11.80;99.90;;;;;;4891972;29;20052;-55
2022/06/04 00:55:06;;;;;;;9.05;6.07;;;11.70;99.90;;;;;;4883212;29;20060;-57
2022/06/04 00:57:52;;;;;;;11.27;6.88;;;11.70;99.90;;;;;;4877379;29;20056;-55
2022/06/04 01:00:24;;;;;;;9.20;6.25;;;11.70;99.90;;;;;;4894461;29;20053;-54
2022/06/04 01:02:58;;;;;;;9.48;5.85;;;11.70;99.90;;;;;;4891120;29;20064;-56
2022/06/04 01:06:00;;;;;;;9.65;6.13;;;11.60;99.90;;;;;;4891401;29;20052;-55
2022/06/04 01:08:51;;;;;;;16.27;6.18;;;11.70;99.90;;;;;;4880631;29;20063;-54
2022/06/04 01:11:33;;;;;;;9.18;6.03;;;11.60;99.90;;;;;;4880511;29;20067;-54
2022/06/04 01:14:37;;;;;;;14.68;6.55;;;11.60;99.90;;;;;;4893195;29;20053;-56
2022/06/04 01:17:20;;;;;;;10.93;6.43;;;11.60;99.90;;;;;;4893665;29;20059;-55
2022/06/04 01:20:04;;;;;;;8.05;6.10;;;11.60;99.90;;;;;;4894237;29;20052;-56
2022/06/04 01:22:45;;;;;;;8.20;5.47;;;11.50;99.90;;;;;;4894137;29;20521;-57
2022/06/04 01:25:52;;;;;;;10.05;5.65;;;11.50;99.90;;;;;;4870544;29;20490;-57
2022/06/04 01:28:21;;;;;;;10.77;6.70;;;11.50;99.90;;;;;;4853143;29;20061;-56
2022/06/04 01:30:56;;;;;;;14.77;6.50;;;11.40;99.90;;;;;;4890961;29;20052;-57
2022/06/04 01:33:31;;;;;;;14.55;7.00;;;11.40;99.90;;;;;;4893219;29;20052;-55
2022/06/04 01:36:17;;;;;;;11.30;7.03;;;11.30;99.90;;;;;;4892496;29;21550;-57
2022/06/04 01:38:57;;;;;;;10.35;7.13;;;11.30;99.90;;;;;;4895216;29;20052;-57
2022/06/04 01:41:29;;;;;;;11.25;7.22;;;11.30;99.90;;;;;;4895494;29;20045;-56
2022/06/04 01:44:00;;;;;;;12.15;6.82;;;11.20;99.90;;;;;;4895409;29;20044;-57
2022/06/04 01:46:33;;;;;;;13.98;7.32;;;11.20;99.90;;;;;;4891512;29;20045;-56
2022/06/04 01:49:15;;;;;;;19.35;8.85;;;11.10;99.90;;;;;;4895140;29;20416;-55
2022/06/04 01:51:46;;;;;;;12.65;7.57;;;11.20;99.90;;;;;;4895301;29;20040;-57
2022/06/04 01:54:47;;;;;;;13.02;8.02;;;11.10;99.90;;;;;;4896131;29;20500;-56
2022/06/04 01:57:32;;;;;;;15.50;8.27;;;11.10;99.90;;;;;;4893137;29;20056;-56
2022/06/04 02:00:17;;;;;;;12.07;7.65;;;11.00;99.90;;;;;;4894253;29;20374;-57
2022/06/04 02:02:59;;;;;;;12.80;7.97;;;11.00;99.90;;;;;;4895605;29;20048;-57
2022/06/04 02:05:39;;;;;;;15.20;8.25;;;11.00;99.90;;;;;;4895410;29;20124;-57
2022/06/04 02:08:12;;;;;;;11.82;7.82;;;10.90;99.90;;;;;;4892498;29;20517;-57
2022/06/04 02:10:46;;;;;;;13.05;7.80;;;10.90;99.90;;;;;;4895846;29;20045;-57
2022/06/04 02:13:15;;;;;;;11.25;7.35;;;10.90;99.90;;;;;;4894805;29;20041;-57
2022/06/04 02:15:50;;;;;;;9.57;6.90;;;10.80;99.90;;;;;;4891993;29;20055;-57
2022/06/04 02:18:18;;;;;;;13.00;6.47;;;10.80;99.90;;;;;;4896093;29;20059;-57
2022/06/04 02:20:46;;;;;;;11.27;6.32;;;10.80;99.90;;;;;;4894064;29;20049;-57
2022/06/04 02:23:14;;;;;;;11.10;6.43;;;10.80;99.90;;;;;;4893936;29;20095;-56
2022/06/04 02:25:42;;;;;;;9.10;5.35;;;10.70;99.90;;;;;;4892678;29;20048;-57
2022/06/04 02:28:10;;;;;;;10.57;5.90;;;10.70;99.90;;;;;;4894237;29;20045;-57
2022/06/04 02:31:14;;;;;;;18.45;6.22;;;10.70;99.90;;;;;;4895109;29;20049;-57
2022/06/04 02:33:54;;;;;;;10.55;5.60;;;10.60;99.90;;;;;;4892641;29;20788;-57
2022/06/04 02:36:45;;;;;;;10.90;5.47;;;10.60;99.90;;;;;;4893684;29;20049;-57
2022/06/04 02:39:25;;;;;;;8.43;4.97;;;10.60;99.90;;;;;;4894371;29;20072;-57
2022/06/04 02:42:13;;;;;;;10.38;4.95;;;10.60;99.90;;;;;;4899611;29;20053;-57
2022/06/04 02:44:58;;;;;;;8.73;4.57;;;10.60;99.90;;;;;;4896204;29;20040;-58
2022/06/04 02:47:46;;;;;;;10.05;4.50;;;10.60;99.90;;;;;;4897987;29;20056;-57
2022/06/04 02:50:25;;;;;;;8.77;5.25;;;10.60;99.90;;;;;;4898290;29;20398;-55
2022/06/04 02:52:56;;;;;;;7.32;4.60;;;10.60;99.90;;;;;;4896990;29;20055;-57
2022/06/04 02:55:28;;;;;;;7.43;4.50;;;10.50;99.90;;;;;;4893901;29;20063;-57
2022/06/04 02:58:01;;;;;;;6.57;4.25;;;10.50;99.90;;;;;;4898951;29;20049;-57
2022/06/04 03:00:29;;;;;;;8.90;4.03;;;10.60;99.90;;;;;;4895568;29;20048;-57
2022/06/04 03:02:57;;;;;;;8.88;3.90;;;10.50;99.90;;;;;;4898319;29;20067;-58
2022/06/04 03:05:26;;;;;;;12.73;4.82;;;10.50;99.90;;;;;;4895377;29;20044;-56
2022/06/04 03:07:58;;;;;;;9.48;3.90;;;10.50;99.90;;;;;;4896892;29;20059;-55
2022/06/04 03:10:33;;;;;;;10.07;4.35;;;10.50;99.90;;;;;;4891206;29;20055;-56
2022/06/04 03:13:01;;;;;;;7.28;4.05;;;10.40;99.90;;;;;;4897327;29;20048;-57
2022/06/04 03:15:28;;;;;;;7.93;4.43;;;10.40;99.90;;;;;;4895890;29;20051;-57
2022/06/04 03:17:56;;;;;;;8.32;4.35;;;10.40;99.90;;;;;;4898102;29;20045;-55
2022/06/04 03:20:25;;;;;;;10.63;4.40;;;10.30;99.90;;;;;;4897748;29;20040;-56
2022/06/04 03:22:54;;;;;;;7.65;4.57;;;10.30;99.90;;;;;;4897313;29;20409;-56
2022/06/04 03:25:21;;;;;;;6.85;4.60;;;10.30;99.90;;;;;;4897720;29;20053;-55
2022/06/04 03:27:53;;;;;;;6.88;3.70;;;10.30;99.90;;;;;;4898436;29;20044;-55
2022/06/04 03:30:26;;;;;;;6.72;3.72;;;10.30;99.90;;;;;;4896925;29;20055;-56
2022/06/04 03:32:54;;;;;;;5.13;3.75;;;10.40;99.90;;;;;;4898277;29;20750;-57
2022/06/04 03:35:22;;;;;;;8.32;3.17;;;10.50;99.90;;;;;;4896500;29;20386;-55
2022/06/04 03:37:50;;;;;;;5.53;3.42;;;10.50;99.90;;;;;;4879015;29;20398;-56
2022/06/04 03:40:18;;;;;;;4.43;3.42;;;10.60;99.90;;;;;;4893511;29;20052;-56
2022/06/04 03:42:46;;;;;;;5.22;3.53;;;10.60;99.90;;;;;;4897048;29;20045;-56
2022/06/04 03:45:14;;;;;;;4.40;3.58;;;10.70;99.90;;;;;;4898148;29;20055;-56
2022/06/04 03:47:42;;;;;;;6.97;3.45;;;10.70;99.90;;;;;;4897425;29;20523;-57
2022/06/04 03:50:13;;;;;;;9.40;3.45;;;10.80;99.90;;;;;;4898040;29;20057;-57
2022/06/04 03:52:42;;;;;;;8.50;4.03;;;10.80;99.90;;;;;;4896097;29;20043;-59
2022/06/04 03:55:11;;;;;;;7.95;4.22;;;10.80;99.90;;;;;;4896454;29;20056;-57
2022/06/04 03:57:50;;;;;;;5.50;3.75;;;10.80;99.90;;;;;;4897307;29;20409;-57
2022/06/04 04:00:19;;;;;;;6.90;4.47;;;10.90;99.90;;;;;;4881003;29;20049;-58
2022/06/04 04:02:50;;;;;;;6.93;5.07;;;10.90;99.90;;;;;;4896734;29;20041;-56
2022/06/04 04:05:21;;;;;;;9.15;4.90;;;10.90;99.90;;;;;;4898092;29;20412;-55
2022/06/04 04:07:50;;;;;;;13.40;5.85;;;10.90;99.90;;;;;;4897459;29;20053;-56
2022/06/04 04:10:18;;;;;;;10.00;5.63;;;10.90;99.90;;;;;;4895581;29;20045;-58
2022/06/04 04:12:46;;;;;;;8.65;5.20;;;10.90;99.90;;;;;;4894737;29;20486;-55
2022/06/04 04:15:15;;;;;;;9.60;6.05;;;10.90;99.90;;;;;;4895575;29;20063;-55
2022/06/04 04:17:43;;;;;;;10.25;6.00;;;10.90;99.90;;;;;;4894231;29;20053;-58
2022/06/04 04:20:25;;;;;;;12.02;7.53;;;10.80;99.90;;;;;;4897685;29;20060;-55
2022/06/04 04:22:55;;;;;;;11.05;6.47;;;10.80;99.90;;;;;;4896184;29;20044;-58
2022/06/04 04:25:24;;;;;;;12.20;6.97;;;10.80;99.90;;;;;;4896128;29;20055;-56
2022/06/04 04:27:52;;;;;;;10.40;6.72;;;10.90;99.90;;;;;;4895518;29;20493;-56
2022/06/04 04:30:23;;;;;;;11.88;6.43;;;10.80;99.90;;;;;;4883334;29;20036;-56
2022/06/04 04:32:52;;;;;;;12.25;7.22;;;10.80;99.90;;;;;;4896651;29;20493;-57
2022/06/04 04:35:27;;;;;;;9.43;6.38;;;10.80;99.90;;;;;;4896578;29;20401;-58
2022/06/04 04:37:55;;;;;;;9.57;6.53;;;10.80;99.90;;;;;;4896251;29;20045;-57
2022/06/04 04:40:25;;;;;;;9.57;6.93;;;10.80;99.90;;;;;;4896483;29;20049;-55
2022/06/04 04:42:53;;;;;;;10.25;6.88;;;10.80;99.90;;;;;;4896751;29;20386;-58
2022/06/04 04:45:23;;;;;;;11.27;6.63;;;10.90;99.90;;;;;;4896661;29;20059;-57
2022/06/04 04:47:51;;;;;;;11.88;7.55;;;10.90;99.90;;;;;;4885959;29;20409;-58
2022/06/04 04:50:35;;;;;;;9.60;6.80;;;10.90;99.90;;;;;;4875362;29;20411;-57
2022/06/04 04:53:06;;;;;;;13.55;7.15;;;10.90;99.90;;;;;;4885275;29;20524;-58
2022/06/04 04:55:34;;;;;;;16.67;8.40;;;10.90;99.90;;;;;;4881432;29;20341;-57
2022/06/04 04:58:03;;;;;;;14.18;7.95;;;10.90;99.90;;;;;;4892957;29;20056;-56
2022/06/04 05:00:31;;;;;;;10.52;7.75;;;10.90;99.90;;;;;;4892979;29;20445;-56
2022/06/04 05:03:00;;;;;;;11.68;7.55;;;11.00;99.90;;;;;;4876621;29;20048;-57
2022/06/04 05:05:28;;;;;;;12.17;8.57;;;11.00;99.90;;;;;;4873927;29;20051;-55
2022/06/04 05:07:57;;;;;;;11.82;8.05;;;11.00;99.90;;;;;;4879762;29;20044;-57
2022/06/04 05:10:25;;;;;;;11.38;7.80;;;11.00;99.90;;;;;;4889573;29;20049;-56
2022/06/04 05:12:54;;;;;;;13.60;8.13;;;11.00;99.90;;;;;;4884318;29;20056;-57
2022/06/04 05:15:22;;;;;;;12.07;8.70;;;11.10;99.90;;;;;;4889144;29;20122;-57
2022/06/04 05:17:50;;;;;;;10.98;7.18;;;11.20;99.90;;;;;;4885048;29;20060;-57
2022/06/04 05:20:18;;;;;;;14.20;8.25;;;11.20;99.90;;;;;;4890544;29;20045;-56
2022/06/04 05:22:45;;;;;;;14.02;7.32;;;11.20;99.90;;;;;;4892973;29;20060;-57
2022/06/04 05:25:13;;;;;;;13.98;7.50;;;11.20;99.90;;;;;;4894843;29;20504;-57
2022/06/04 05:27:41;;;;;;;12.60;8.15;;;11.30;99.90;;;;;;4893703;29;20501;-58
2022/06/04 05:30:09;;;;;;;12.35;7.38;;;11.30;99.90;;;;;;4895184;29;20077;-58
2022/06/04 05:32:37;;;;;;;10.05;7.30;;;11.30;99.90;;;;;;4887115;29;20051;-57
2022/06/04 05:35:05;;;;;;;11.52;7.78;;;11.20;99.90;;;;;;4889234;29;20072;-56
2022/06/04 05:37:32;;;;;;;15.90;7.97;;;11.20;99.90;;;;;;4888129;29;20041;-57
2022/06/04 05:40:04;;;;;;;;;;;11.20;99.90;;;;;;4892790;29;20080;-57
2022/06/04 05:42:32;;;;;;;11.98;7.72;;;11.30;99.90;;;;;;4894351;29;19923;-57
2022/06/04 05:45:00;;;;;;;13.15;7.28;;;11.30;99.90;;;;;;4889731;29;20048;-58
2022/06/04 05:47:28;;;;;;;15.07;8.38;;;11.30;99.90;;;;;;4885925;29;20059;-58
2022/06/04 05:49:55;;;;;;;12.52;7.95;;;11.30;99.90;;;;;;4877967;29;20076;-57
2022/06/04 05:52:23;;;;;;;11.95;7.35;;;11.30;99.90;;;;;;4888089;29;20060;-57
2022/06/04 05:54:51;;;;;;;10.23;7.20;;;11.40;99.90;;;;;;4891794;29;20044;-57
2022/06/04 05:57:19;;;;;;;10.77;6.97;;;11.40;99.90;;;;;;4887281;29;20063;-58
2022/06/04 05:59:48;;;;;;;12.48;7.15;;;11.50;99.90;;;;;;4890492;29;20049;-59
2022/06/04 06:02:16;;;;;;;10.68;6.72;;;11.50;99.90;;;;;;4888792;29;20053;-57
2022/06/04 06:04:44;;;;;;;10.85;7.07;;;11.50;99.90;;;;;;4878294;29;20045;-58
2022/06/04 06:07:12;;;;;;;13.85;8.18;;;11.50;99.90;;;;;;4888684;29;20059;-57
2022/06/04 06:09:39;;;;;;;13.40;7.85;;;11.50;99.90;;;;;;4893442;29;20051;-56
2022/06/04 06:12:08;;;;;;;11.85;7.70;;;11.50;99.90;;;;;;4880704;29;20060;-57
2022/06/04 06:14:36;;;;;;;12.70;7.10;;;11.50;99.90;;;;;;4891903;29;20040;-57
2022/06/04 06:17:03;;;;;;;13.30;6.82;;;11.50;99.90;;;;;;4896759;29;20053;-58
2022/06/04 06:19:31;;;;;;;11.98;7.65;;;11.60;99.90;;;;;;4891273;29;20485;-56
2022/06/04 06:21:59;;;;;;;9.02;6.10;;;11.60;99.90;;;;;;4898679;29;20052;-56
2022/06/04 06:24:26;;;;;;;9.75;6.60;;;11.70;99.90;;;;;;4898015;29;20045;-57
2022/06/04 06:26:57;;;;;;;10.60;6.43;;;11.80;99.90;;;;;;4894341;29;20053;-58
2022/06/04 06:29:27;;;;;;;8.88;6.03;;;11.90;99.90;;;;;;4896188;29;20470;-58
2022/06/04 06:31:57;;;;;;;9.38;5.30;;;12.00;99.90;;;;;;4894305;29;20425;-58
2022/06/04 06:34:25;;;;;;;10.45;4.95;;;12.00;99.90;;;;;;4889118;29;20052;-58
2022/06/04 06:36:53;;;;;;;7.55;5.07;;;12.10;99.90;;;;;;4894908;29;20048;-58
2022/06/04 06:39:20;;;;;;;6.25;4.47;;;12.10;99.90;;;;;;4896730;29;20409;-56
2022/06/04 06:41:48;;;;;;;10.57;5.18;;;12.10;99.90;;;;;;4896616;29;20048;-57
2022/06/04 06:44:16;;;;;;;9.60;4.80;;;12.20;99.90;;;;;;4891924;29;20405;-58
2022/06/04 06:46:47;;;;;;;9.23;5.00;;;12.30;99.90;;;;;;4847390;29;20072;-58
2022/06/04 06:49:24;;;;;;;9.20;5.65;;;12.30;99.90;;;;;;4892296;29;20401;-57
2022/06/04 06:51:55;;;;;;;11.70;4.72;;;12.30;99.90;;;;;;4893344;29;20405;-59
2022/06/04 06:54:28;;;;;;;7.22;4.38;;;12.40;99.90;;;;;;4895012;29;20045;-58
2022/06/04 06:56:58;;;;;;;5.32;3.95;;;12.50;99.90;;;;;;4897735;29;20052;-58
2022/06/04 06:59:27;;;;;;;6.30;4.38;;;12.60;99.90;;;;;;4896500;29;20108;-57
2022/06/04 07:01:57;;;;;;;7.57;4.97;;;12.70;99.90;;;;;;4895444;29;20607;-58
2022/06/04 07:04:26;;;;;;;5.57;4.35;;;12.80;99.90;;;;;;4891246;29;20418;-57
2022/06/04 07:07:00;;;;;;;6.00;3.95;;;12.80;99.90;;;;;;4890312;29;20418;-57
2022/06/04 07:09:29;;;;;;;7.82;4.65;;;12.90;99.90;;;;;;4893565;29;20052;-57
2022/06/04 07:11:56;;;;;;;8.48;4.82;;;12.90;99.90;;;;;;4888801;29;20493;-58
2022/06/04 07:14:25;;;;;;;7.38;4.20;;;13.00;99.90;;;;;;4895061;29;20041;-58
2022/06/04 07:16:54;;;;;;;8.98;3.75;;;13.00;99.90;;;;;;4897468;29;20075;-58
2022/06/04 07:19:24;;;;;;;8.13;4.03;;;13.10;99.90;;;;;;4896534;29;20045;-58
2022/06/04 07:21:53;;;;;;;10.03;4.00;;;13.10;99.90;;;;;;4891239;29;20311;-56
2022/06/04 07:24:21;;;;;;;7.03;3.88;;;13.20;99.90;;;;;;4894083;29;20055;-57
2022/06/04 07:26:50;;;;;;;8.05;4.38;;;13.20;99.90;;;;;;4895311;29;20071;-56
2022/06/04 07:29:18;;;;;;;10.90;3.78;;;13.20;99.90;;;;;;4896136;29;20134;-59
2022/06/04 07:31:46;;;;;;;5.45;3.53;;;13.30;99.90;;;;;;4895520;29;20056;-59
2022/06/04 07:34:14;;;;;;;11.00;5.70;;;13.40;99.90;;;;;;4895150;29;20524;-58
2022/06/04 07:36:48;;;;;;;8.90;4.75;;;13.50;99.90;;;;;;4896277;29;20060;-58
2022/06/04 07:39:19;;;;;;;8.98;5.55;;;13.60;99.90;;;;;;4884124;29;20053;-58
2022/06/04 07:41:52;;;;;;;9.32;6.05;;;13.60;99.90;;;;;;4885804;29;20060;-58
2022/06/04 07:44:23;;;;;;;8.57;5.90;;;13.70;99.90;;;;;;4886147;29;20060;-58
2022/06/04 07:46:53;;;;;;;10.98;5.78;;;13.80;99.90;;;;;;4892923;29;20056;-58
2022/06/04 07:49:21;;;;;;;10.13;6.03;;;13.80;99.90;;;;;;4895684;29;20048;-59
2022/06/04 07:51:50;;;;;;;11.85;5.65;;;13.90;99.90;;;;;;4896818;29;20056;-58
2022/06/04 07:54:19;;;;;;;7.93;5.32;;;13.90;99.90;;;;;;4887711;29;20433;-57
2022/06/04 07:56:47;;;;;;;7.68;6.05;;;13.90;99.90;;;;;;4893605;29;20409;-57
2022/06/04 07:59:16;;;;;;;9.00;5.03;;;13.90;99.90;;;;;;4892989;29;20048;-57
2022/06/04 08:01:45;;;;;;;7.28;5.43;;;13.90;99.90;;;;;;4881412;29;20041;-58
2022/06/04 08:04:14;;;;;;;14.50;6.72;;;13.90;99.90;;;;;;4888932;29;20401;-56
2022/06/04 08:06:41;;;;;;;9.40;5.75;;;13.90;99.90;;;;;;4895372;29;20047;-59
2022/06/04 08:09:09;;;;;;;13.05;5.43;;;13.90;99.90;;;;;;4892293;29;20044;-58
2022/06/04 08:11:38;;;;;;;9.43;4.93;;;14.00;99.90;;;;;;4894575;29;20045;-56
2022/06/04 08:14:10;;;;;;;9.75;4.97;;;14.00;99.90;;;;;;4895780;29;20060;-56
2022/06/04 08:16:42;;;;;;;7.63;5.05;;;14.00;99.90;;;;;;4891961;29;20059;-58
2022/06/04 08:19:11;;;;;;;12.20;5.22;;;14.10;99.90;;;;;;4883415;29;20075;-57
2022/06/04 08:21:40;;;;;;;8.93;4.78;;;14.20;99.90;;;;;;4889914;29;20055;-58
2022/06/04 08:24:10;;;;;;;8.27;4.53;;;14.30;99.90;;;;;;4905257;29;20056;-57
2022/06/04 08:26:41;;;;;;;10.63;5.28;;;14.40;99.90;;;;;;4885120;29;20492;-56
2022/06/04 08:29:09;;;;;;;7.72;4.45;;;14.50;99.90;;;;;;4902036;29;20416;-57
2022/06/04 08:31:37;;;;;;;8.05;4.53;;;14.50;99.90;;;;;;4894961;29;20448;-56
2022/06/04 08:34:05;;;;;;;10.00;4.70;;;14.70;99.90;;;;;;4881613;29;20052;-56
2022/06/04 08:36:33;;;;;;;9.07;5.35;;;14.80;99.90;;;;;;4890725;29;20045;-57
2022/06/04 08:39:03;;;;;;;7.05;4.65;;;14.90;99.90;;;;;;4887504;29;20391;-57
2022/06/04 08:41:52;;;;;;;5.70;4.70;;;14.90;99.90;;;;;;4888205;29;20052;-56
2022/06/04 08:44:25;;;;;;;5.80;4.47;;;15.00;99.90;;;;;;4887567;29;20053;-56
2022/06/04 08:47:00;;;;;;;7.65;4.88;;;15.10;99.90;;;;;;4887500;29;20072;-57
2022/06/04 08:49:32;;;;;;;7.07;4.28;;;15.10;99.90;;;;;;4888916;29;20512;-56
2022/06/04 08:52:12;;;;;;;8.90;4.63;;;15.00;99.90;;;;;;4892509;29;20057;-57
2022/06/04 08:58:00;;;;;;;6.15;4.32;;;14.80;99.90;;;;;;4893651;29;20295;-58
2022/06/04 09:00:38;;;;;;;6.65;4.63;;;14.70;99.90;;;;;;4877351;29;20521;-58
2022/06/04 09:03:18;;;;;;;10.48;4.40;;;14.70;99.90;;;;;;4886989;29;20049;-60
2022/06/04 09:06:16;;;;;;;11.13;5.00;;;14.60;99.90;;;;;;4886995;29;20045;-58
2022/06/04 09:09:03;;;;;;;8.85;5.18;;;14.50;99.90;;;;;;4882709;29;20068;-58
2022/06/04 09:11:46;;;;;;;6.53;5.00;;;14.50;99.90;;;;;;4878268;29;20057;-58
2022/06/04 09:14:43;;;;;;;8.02;4.43;;;14.50;99.90;;;;;;4877851;29;20532;-57
2022/06/04 09:17:17;;;;;;;8.98;4.90;;;14.70;99.90;;;;;;4888355;29;20041;-58
2022/06/04 09:19:55;;;;;;;7.88;4.85;;;14.80;99.90;;;;;;4860645;29;20437;-58
2022/06/04 09:22:31;;;;;;;8.68;5.03;;;15.00;99.90;;;;;;4885312;29;20053;-57
2022/06/04 09:24:59;;;;;;;10.50;5.00;;;15.10;99.90;;;;;;4878939;29;20055;-59
2022/06/04 09:27:40;;;;;;;13.50;5.65;;;15.30;99.90;;;;;;4882785;29;20044;-59
2022/06/04 09:30:45;;;;;;;9.18;5.55;;;15.40;99.90;;;;;;4883453;29;20052;-58
2022/06/04 09:33:38;;;;;;;12.98;6.03;;;15.50;99.90;;;;;;4876356;29;20059;-58
2022/06/04 09:36:11;;;;;;;9.02;5.85;;;15.70;99.90;;;;;;4882201;29;20045;-58
2022/06/04 09:38:39;;;;;;;9.23;5.72;;;15.80;99.90;;;;;;4892733;29;20055;-57
2022/06/04 09:41:18;;;;;;;9.10;5.65;;;15.90;99.70;;;;;;4876323;29;20053;-59
2022/06/04 09:43:57;;;;;;;9.63;6.10;;;16.00;99.20;;;;;;4883537;29;20053;-57
2022/06/04 09:46:26;;;;;;;9.57;5.40;;;16.00;98.80;;;;;;4876324;29;20532;-58
2022/06/04 09:48:55;;;;;;;6.38;4.18;;;16.00;98.80;;;;;;4887141;29;20036;-58
2022/06/04 09:51:27;;;;;;;6.35;3.90;;;16.00;98.80;;;;;;4894805;29;20056;-57
2022/06/04 09:54:02;;;;;;;7.05;4.45;;;16.10;98.70;;;;;;4891509;29;20040;-59
2022/06/04 09:56:39;;;;;;;7.35;4.28;;;16.30;98.60;;;;;;4894782;29;20535;-58
2022/06/04 09:59:18;;;;;;;5.13;3.90;;;16.50;98.90;;;;;;4880606;29;20056;-59
2022/06/04 10:02:11;;;;;;;5.35;3.97;;;16.60;98.00;;;;;;4880842;29;20053;-57
2022/06/04 10:04:58;;;;;;;5.65;4.20;;;16.80;97.70;;;;;;4890173;29;20059;-57
2022/06/04 10:07:38;;;;;;;5.13;3.28;;;16.90;97.10;;;;;;4876446;29;20060;-56
2022/06/04 10:10:42;;;;;;;6.10;3.65;;;16.90;96.60;;;;;;4887250;29;20044;-58
2022/06/04 10:16:28;;;;;;;6.50;4.22;;;17.10;97.10;;;;;;4889828;29;20045;-59
2022/06/04 10:19:14;;;;;;;6.35;4.20;;;17.20;95.90;;;;;;4889669;29;20056;-58
2022/06/04 10:21:44;;;;;;;6.82;3.80;;;17.30;96.20;;;;;;4889701;29;20053;-58
2022/06/04 10:24:19;;;;;;;9.50;3.90;;;17.40;96.00;;;;;;4875523;29;20069;-58
2022/06/04 10:27:27;;;;;;;9.32;3.95;;;17.50;95.60;;;;;;4884877;29;20056;-57
2022/06/04 10:30:31;;;;;;;9.57;4.65;;;17.60;95.00;;;;;;4874526;29;20056;-58
2022/06/04 10:33:06;;;;;;;7.22;4.18;;;17.50;94.90;;;;;;4885990;29;20079;-58
2022/06/04 10:35:56;;;;;;;7.57;3.90;;;17.30;95.10;;;;;;4884276;29;20040;-57
2022/06/04 10:38:43;;;;;;;7.90;3.45;;;17.20;95.50;;;;;;4881424;29;20512;-58
2022/06/04 10:41:35;;;;;;;5.03;4.30;;;17.10;95.40;;;;;;4888363;29;20052;-56
2022/06/04 10:44:24;;;;;;;8.65;4.85;;;17.10;95.80;;;;;;4878149;29;20045;-58
2022/06/04 10:46:52;;;;;;;6.57;3.72;;;17.10;95.90;;;;;;4875152;29;20135;-59
2022/06/04 10:49:25;;;;;;;5.90;3.60;;;17.20;95.50;;;;;;4889363;29;20059;-57
2022/06/04 10:52:10;;;;;;;4.55;3.80;;;17.20;95.90;;;;;;4881763;29;20049;-57
2022/06/04 10:54:57;;;;;;;5.43;3.88;;;17.60;95.70;;;;;;4890145;29;20405;-58
2022/06/04 10:57:33;;;;;;;5.07;3.92;;;17.80;94.60;;;;;;4881325;29;20063;-59
2022/06/04 11:00:10;;;;;;;8.43;4.00;;;17.80;94.50;;;;;;4875422;29;20060;-57
2022/06/04 11:02:53;;;;;;;4.03;3.40;;;17.80;94.70;;;;;;4886392;29;20053;-57
2022/06/04 11:05:35;;;;;;;9.20;3.97;;;17.70;93.90;;;;;;4888264;29;20493;-57
2022/06/04 11:08:14;;;;;;;4.95;3.58;;;17.70;93.80;;;;;;4877783;29;20064;-58
2022/06/04 11:10:53;;;;;;;5.38;3.80;;;17.70;94.00;;;;;;4887996;29;20056;-57
2022/06/04 11:13:33;;;;;;;7.70;3.83;;;17.70;94.20;;;;;;4888917;29;20052;-57
2022/06/04 11:16:21;;;;;;;7.38;4.57;;;17.80;93.50;;;;;;4883080;29;20048;-57
2022/06/04 11:19:16;;;;;;;6.45;4.28;;;17.80;93.50;;;;;;4889336;29;20075;-57
2022/06/04 11:21:55;;;;;;;9.43;4.78;;;17.80;93.00;;;;;;4877540;29;20045;-57
2022/06/04 11:24:33;;;;;;;6.80;4.40;;;17.70;93.40;;;;;;4888746;29;20049;-57
2022/06/04 11:27:13;;;;;;;8.23;4.93;;;17.70;93.70;;;;;;4894692;29;20495;-57
2022/06/04 11:29:41;;;;;;;6.95;4.40;;;17.80;93.70;;;;;;4896207;29;20404;-57
2022/06/04 11:32:32;;;;;;;9.05;5.05;;;17.80;93.20;;;;;;4896487;29;20074;-57
2022/06/04 11:35:26;;;;;;;5.30;4.25;;;17.90;93.20;;;;;;4896378;29;20052;-58
2022/06/04 11:38:14;;;;;;;7.35;4.50;;;17.90;93.50;;;;;;4895189;29;20061;-58
2022/06/04 11:40:55;;;;;;;7.03;4.30;;;17.90;93.10;;;;;;4895626;29;20445;-58
2022/06/04 11:43:26;;;;;;;8.05;4.07;;;18.00;93.30;;;;;;4895067;29;20516;-58
2022/06/04 11:46:05;;;;;;;4.03;3.45;;;18.10;92.90;;;;;;4893367;29;20064;-58
2022/06/04 11:48:38;;;;;;;8.15;4.45;;;18.10;93.10;;;;;;4883699;29;20076;-58
2022/06/04 11:51:18;;;;;;;7.22;4.50;;;18.10;93.10;;;;;;4876336;29;20056;-58
2022/06/04 11:53:53;;;;;;;8.18;4.75;;;18.30;92.90;;;;;;4884864;29;20582;-58
2022/06/04 11:56:33;;;;;;;6.22;4.22;;;18.30;92.40;;;;;;4896737;29;20052;-58
2022/06/04 11:59:11;;;;;;;6.03;4.30;;;18.40;91.60;;;;;;4896807;29;20059;-57
2022/06/04 12:01:45;;;;;;;4.65;3.88;;;18.70;91.80;;;;;;4895732;29;20477;-58
2022/06/04 12:04:32;;;;;;;9.15;6.05;;;19.00;91.20;;;;;;4891460;29;20056;-58
2022/06/04 12:07:05;;;;;;;5.90;5.03;;;19.30;91.30;;;;;;4896467;29;20053;-60
2022/06/04 12:09:50;;;;;;;7.18;5.18;;;19.60;91.00;;;;;;4874233;29;20048;-58
2022/06/04 12:12:25;;;;;;;5.50;4.32;;;19.70;90.00;;;;;;4896349;29;20048;-57
2022/06/04 12:15:14;;;;;;;7.43;4.32;;;19.70;89.00;;;;;;4896376;29;20048;-58
2022/06/04 12:17:51;;;;;;;6.72;4.72;;;19.90;88.70;;;;;;4894995;29;20402;-58
2022/06/04 12:26:33;;;;;;;7.40;4.70;;;20.80;85.30;;;;;;4896047;29;20381;-58
2022/06/04 12:29:23;;;;;;;6.97;4.60;;;20.50;85.30;;;;;;4895890;29;20055;-59
2022/06/04 12:32:04;;;;;;;6.20;4.53;;;20.10;84.90;;;;;;4894891;29;20052;-58
2022/06/04 12:34:40;;;;;;;9.25;4.00;;;19.80;86.10;;;;;;4891958;29;20048;-58
2022/06/04 12:37:28;;;;;;;7.93;3.95;;;19.50;87.70;;;;;;4896293;29;20048;-58
2022/06/04 12:39:57;;;;;;;8.25;3.83;;;19.60;88.30;;;;;;4894476;29;20057;-59
2022/06/04 12:42:27;;;;;;;10.38;3.90;;;19.70;87.50;;;;;;4896009;29;20040;-57
2022/06/04 12:45:06;;;;;;;7.75;3.55;;;19.70;88.00;;;;;;4894803;29;20048;-58
2022/06/04 12:47:36;;;;;;;8.00;3.63;;;19.60;87.20;;;;;;4894997;29;20052;-57
2022/06/04 12:50:18;;;;;;;6.72;3.90;;;19.50;87.80;;;;;;4884936;29;20059;-59
2022/06/04 12:52:55;;;;;;;5.70;3.72;;;19.40;87.00;;;;;;4880661;29;20050;-58
2022/06/04 12:55:25;;;;;;;5.38;3.83;;;19.30;88.10;;;;;;4895877;29;20056;-58
2022/06/04 12:57:55;;;;;;;5.00;3.75;;;19.30;88.60;;;;;;4894679;29;20052;-58
2022/06/04 13:00:36;;;;;;;5.07;3.25;;;19.60;88.10;;;;;;4895093;29;20048;-58
2022/06/04 13:03:07;;;;;;;5.53;3.15;;;19.80;86.30;;;;;;4892887;29;20512;-58
2022/06/04 13:05:59;;;;;;;6.95;3.50;;;20.00;85.70;;;;;;4895562;29;20060;-59
2022/06/04 13:08:46;;;;;;;3.70;2.95;;;20.10;84.30;;;;;;4886682;29;20059;-58
2022/06/04 13:11:46;;;;;;;5.65;3.15;;;20.20;83.70;;;;;;4895659;29;20055;-57
2022/06/04 13:14:26;;;;;;;5.03;3.28;;;20.00;83.00;;;;;;4855562;29;20056;-58
2022/06/04 13:16:57;;;;;;;5.15;2.17;;;19.60;84.10;;;;;;4876810;29;20053;-59
2022/06/04 13:19:52;;;;;;;3.75;2.25;;;19.60;85.00;;;;;;4892954;29;20048;-59
2022/06/04 13:22:50;;;;;;;7.70;2.30;;;19.80;85.20;;;;;;4895349;29;20068;-58
2022/06/04 13:25:35;;;;;;;7.32;1.98;;;20.10;84.60;;;;;;4894453;29;20060;-59
2022/06/04 13:28:04;;;;;;;4.95;2.22;;;20.30;82.60;;;;;;4883602;29;20059;-59
2022/06/04 13:30:34;;;;;;;4.05;2.10;;;20.20;82.40;;;;;;4894695;29;20051;-59
2022/06/04 13:33:11;;;;;;;3.92;2.40;;;20.00;83.20;;;;;;4893264;29;20040;-58
2022/06/04 13:35:45;;;;;;;5.97;2.35;;;19.70;84.60;;;;;;4895118;29;20056;-58
2022/06/04 13:38:31;;;;;;;2.60;1.98;;;19.60;85.30;;;;;;4894799;29;20412;-58
2022/06/04 13:44:27;;;;;;;5.85;2.10;;;19.80;84.40;;;;;;4893769;29;20044;-58